Time;durP1;ratioP1;P1;durP2;ratioP2;P2;SDS_P1;SDS_P2;PMS_P1;PMS_P2;Temp;Humidity;BMP_temperature;BMP_pressure;BME280_temperature;BME280_humidity;BME280_pressure;Samples;Min_cycle;Max_cycle;Signal;HPM_P1;HPM_P2
2022/05/22 00:00:32;;;;;;;9.17;4.17;;;10.10;99.90;;;;;;4812899;29;20049;-81
2022/05/22 00:02:57;;;;;;;8.90;4.00;;;10.00;99.90;;;;;;4795389;29;20069;-81
2022/05/22 00:05:24;;;;;;;10.50;4.07;;;10.00;99.90;;;;;;4785619;29;20047;-81
2022/05/22 00:07:51;;;;;;;11.47;5.17;;;10.00;99.90;;;;;;4795672;29;20063;-81
2022/05/22 00:10:18;;;;;;;9.77;4.13;;;10.00;99.90;;;;;;4799458;29;20061;-81
2022/05/22 00:12:44;;;;;;;9.03;3.57;;;9.80;99.90;;;;;;4780466;29;20483;-80
2022/05/22 00:15:12;;;;;;;6.80;3.80;;;9.80;99.90;;;;;;4785831;29;20182;-80
2022/05/22 00:17:38;;;;;;;8.80;3.90;;;9.80;99.90;;;;;;4796197;29;20084;-80
2022/05/22 00:20:04;;;;;;;8.97;3.90;;;9.80;99.90;;;;;;4803526;29;20081;-81
2022/05/22 00:22:30;;;;;;;8.53;4.10;;;9.80;99.90;;;;;;4789479;29;20046;-81
2022/05/22 00:24:57;;;;;;;11.00;4.13;;;9.90;99.90;;;;;;4785757;29;20066;-80
2022/05/22 00:27:23;;;;;;;7.10;4.20;;;9.90;99.90;;;;;;4804520;29;20054;-82
2022/05/22 00:29:48;;;;;;;9.27;4.03;;;9.90;99.90;;;;;;4801898;29;20056;-81
2022/05/22 00:32:14;;;;;;;7.37;3.90;;;9.80;99.90;;;;;;4785419;29;20050;-81
2022/05/22 00:34:40;;;;;;;5.07;3.47;;;9.90;99.90;;;;;;4765129;29;20051;-81
2022/05/22 00:37:07;;;;;;;5.80;3.53;;;9.80;99.90;;;;;;4770152;29;20111;-80
2022/05/22 00:39:33;;;;;;;9.57;3.83;;;9.80;99.90;;;;;;4804286;29;20804;-81
2022/05/22 00:41:59;;;;;;;8.60;4.17;;;9.90;99.90;;;;;;4810797;29;20044;-80
2022/05/22 00:44:26;;;;;;;8.63;3.60;;;9.80;99.90;;;;;;4789940;29;20506;-81
2022/05/22 00:46:52;;;;;;;9.30;3.90;;;9.80;99.90;;;;;;4804991;29;20054;-79
2022/05/22 00:49:23;;;;;;;7.83;3.87;;;9.70;99.90;;;;;;4804255;29;20107;-81
2022/05/22 00:52:03;;;;;;;8.73;3.67;;;9.60;99.90;;;;;;4793170;29;21001;-81
2022/05/22 00:54:33;;;;;;;7.93;4.00;;;9.60;99.90;;;;;;4800518;29;20051;-81
2022/05/22 00:57:05;;;;;;;9.27;4.57;;;9.50;99.90;;;;;;4822171;29;20126;-80
2022/05/22 00:59:36;;;;;;;10.80;4.33;;;9.40;99.90;;;;;;4802332;29;20042;-81
2022/05/22 01:02:04;;;;;;;8.93;4.40;;;9.40;99.90;;;;;;4820602;29;20057;-80
2022/05/22 01:04:32;;;;;;;11.73;4.37;;;9.50;99.90;;;;;;4789410;29;20095;-80
2022/05/22 01:06:59;;;;;;;7.03;4.07;;;9.40;99.90;;;;;;4820727;29;20089;-81
2022/05/22 01:09:25;;;;;;;9.80;4.13;;;9.40;99.90;;;;;;4802930;29;20525;-81
2022/05/22 01:11:58;;;;;;;7.53;4.07;;;9.40;99.90;;;;;;4804395;29;20055;-81
2022/05/22 01:14:26;;;;;;;7.03;3.70;;;9.40;99.90;;;;;;4801600;29;20076;-81
2022/05/22 01:16:51;;;;;;;5.77;4.50;;;9.40;99.90;;;;;;4786236;29;20613;-81
2022/05/22 01:19:23;;;;;;;9.13;4.37;;;9.40;99.90;;;;;;4789832;29;20157;-79
2022/05/22 01:21:54;;;;;;;7.90;4.28;;;9.30;99.90;;;;;;4800906;29;20053;-80
2022/05/22 01:24:21;;;;;;;7.47;4.43;;;9.30;99.90;;;;;;4797927;29;20097;-80
2022/05/22 01:26:48;;;;;;;6.97;4.37;;;9.30;99.90;;;;;;4782194;29;20107;-80
2022/05/22 01:29:15;;;;;;;6.57;4.23;;;9.30;99.90;;;;;;4801105;29;20062;-80
2022/05/22 01:31:41;;;;;;;7.93;3.83;;;9.30;99.90;;;;;;4788436;29;20039;-80
2022/05/22 01:34:06;;;;;;;6.43;4.10;;;9.30;99.90;;;;;;4786169;29;20138;-80
2022/05/22 01:36:32;;;;;;;8.00;4.50;;;9.30;99.90;;;;;;4790234;29;20050;-80
2022/05/22 01:38:58;;;;;;;7.70;4.20;;;9.30;99.90;;;;;;4793106;29;20077;-80
2022/05/22 01:41:24;;;;;;;8.50;4.20;;;9.30;99.90;;;;;;4788262;29;20059;-80
2022/05/22 01:43:49;;;;;;;7.10;3.87;;;9.30;99.90;;;;;;4793766;29;20162;-80
2022/05/22 01:46:15;;;;;;;8.37;4.17;;;9.30;99.90;;;;;;4785822;29;20054;-80
2022/05/22 01:48:41;;;;;;;8.03;4.43;;;9.20;99.90;;;;;;4800992;29;20055;-80
2022/05/22 01:51:06;;;;;;;6.30;3.40;;;9.00;99.90;;;;;;4786778;29;20051;-80
2022/05/22 01:53:33;;;;;;;9.00;4.23;;;9.00;99.90;;;;;;4787439;29;20057;-80
2022/05/22 01:55:59;;;;;;;7.83;4.10;;;8.90;99.90;;;;;;4798495;29;20046;-80
2022/05/22 01:58:25;;;;;;;9.67;4.37;;;9.00;99.90;;;;;;4789272;29;20061;-81
2022/05/22 02:00:51;;;;;;;8.53;4.03;;;9.00;99.90;;;;;;4784833;29;20861;-80
2022/05/22 02:03:17;;;;;;;6.47;4.30;;;9.00;99.90;;;;;;4786103;29;20093;-80
2022/05/22 02:05:43;;;;;;;10.60;4.47;;;9.00;99.90;;;;;;4760689;29;20062;-80
2022/05/22 02:08:19;;;;;;;9.67;4.50;;;8.90;99.90;;;;;;4770764;29;20039;-80
2022/05/22 02:10:45;;;;;;;5.97;3.83;;;8.90;99.90;;;;;;4800254;29;20072;-81
2022/05/22 02:13:12;;;;;;;6.63;3.83;;;8.90;99.90;;;;;;4784814;29;20065;-80
2022/05/22 02:15:37;;;;;;;5.30;3.47;;;8.90;99.90;;;;;;4783496;29;20054;-80
2022/05/22 02:18:03;;;;;;;5.33;3.27;;;8.90;99.90;;;;;;4773390;29;20200;-80
2022/05/22 02:20:29;;;;;;;8.13;4.00;;;8.90;99.90;;;;;;4770393;29;20055;-81
2022/05/22 02:22:57;;;;;;;7.03;3.50;;;8.90;99.90;;;;;;4791770;29;20054;-80
2022/05/22 02:25:29;;;;;;;7.70;4.23;;;8.90;99.90;;;;;;4786196;29;20525;-80
2022/05/22 02:27:56;;;;;;;7.43;3.97;;;8.80;99.90;;;;;;4798255;29;20070;-80
2022/05/22 02:30:26;;;;;;;4.20;3.33;;;8.80;99.90;;;;;;4785336;29;20049;-79
2022/05/22 02:32:52;;;;;;;8.87;4.30;;;8.90;99.90;;;;;;4782154;29;20073;-82
2022/05/22 02:35:18;;;;;;;7.63;3.90;;;8.90;99.90;;;;;;4801490;29;20171;-80
2022/05/22 02:37:46;;;;;;;6.43;3.97;;;8.90;99.90;;;;;;4801749;29;20530;-80
2022/05/22 02:40:14;;;;;;;8.23;4.50;;;8.90;99.90;;;;;;4801083;29;20406;-80
2022/05/22 02:42:41;;;;;;;7.53;4.67;;;8.90;99.90;;;;;;4794930;29;20066;-80
2022/05/22 02:45:09;;;;;;;7.87;4.90;;;8.80;99.90;;;;;;4802989;29;20111;-80
2022/05/22 02:47:35;;;;;;;7.87;4.57;;;8.70;99.90;;;;;;4801910;29;20055;-80
2022/05/22 02:50:01;;;;;;;7.40;4.50;;;8.70;99.90;;;;;;4785652;29;20050;-80
2022/05/22 02:52:27;;;;;;;6.03;4.37;;;8.60;99.90;;;;;;4802933;29;20043;-80
2022/05/22 02:54:53;;;;;;;6.80;4.57;;;8.60;99.90;;;;;;4798294;29;20051;-81
2022/05/22 02:57:22;;;;;;;6.97;4.60;;;8.60;99.90;;;;;;4785037;29;20050;-79
2022/05/22 02:59:49;;;;;;;7.87;4.43;;;8.50;99.90;;;;;;4796785;29;20055;-80
2022/05/22 03:02:15;;;;;;;5.93;4.23;;;8.50;99.90;;;;;;4802411;29;20147;-80
2022/05/22 03:04:41;;;;;;;9.83;4.80;;;8.50;99.90;;;;;;4797238;29;20053;-81
2022/05/22 03:07:08;;;;;;;7.17;4.63;;;8.50;99.90;;;;;;4800447;29;20452;-82
2022/05/22 03:09:37;;;;;;;10.10;5.33;;;8.50;99.90;;;;;;4798610;29;20057;-80
2022/05/22 03:12:13;;;;;;;7.07;4.53;;;8.50;99.90;;;;;;4790729;29;20047;-80
2022/05/22 03:14:47;;;;;;;6.77;4.53;;;8.50;99.90;;;;;;4804233;29;20698;-80
2022/05/22 03:17:13;;;;;;;8.67;5.63;;;8.40;99.90;;;;;;4800372;29;20054;-80
2022/05/22 03:19:39;;;;;;;11.03;5.93;;;8.40;99.90;;;;;;4785832;29;20079;-80
2022/05/22 03:22:06;;;;;;;9.20;5.17;;;8.40;99.90;;;;;;4788437;29;20050;-79
2022/05/22 03:24:33;;;;;;;9.63;5.93;;;8.30;99.90;;;;;;4801493;29;20057;-80
2022/05/22 03:27:01;;;;;;;24.20;9.90;;;8.30;99.90;;;;;;4802748;29;20054;-81
2022/05/22 03:29:27;;;;;;;22.67;14.47;;;8.40;99.90;;;;;;4797696;29;20158;-80
2022/05/22 03:31:53;;;;;;;11.33;9.10;;;8.40;99.90;;;;;;4784223;29;20503;-80
2022/05/22 03:34:19;;;;;;;23.43;19.73;;;8.30;99.90;;;;;;4800997;29;20074;-79
2022/05/22 03:36:45;;;;;;;33.90;27.60;;;8.30;99.90;;;;;;4770515;29;20057;-80
2022/05/22 03:39:11;;;;;;;35.97;30.20;;;8.30;99.90;;;;;;4799268;29;20766;-79
2022/05/22 03:41:37;;;;;;;37.93;27.63;;;8.30;99.90;;;;;;4776721;29;20055;-79
2022/05/22 03:44:05;;;;;;;46.03;38.57;;;8.40;99.90;;;;;;4815851;29;20123;-79
2022/05/22 03:46:32;;;;;;;54.83;40.83;;;8.40;99.90;;;;;;4796463;29;20043;-79
2022/05/22 03:48:58;;;;;;;37.63;29.87;;;8.40;99.90;;;;;;4785117;29;20538;-79
2022/05/22 03:51:24;;;;;;;36.73;31.87;;;8.50;99.90;;;;;;4775381;29;20123;-80
2022/05/22 03:53:50;;;;;;;44.77;36.60;;;8.50;99.90;;;;;;4817443;29;20051;-80
2022/05/22 03:56:17;;;;;;;42.67;34.03;;;8.50;99.90;;;;;;4801856;29;20066;-80
2022/05/22 03:58:43;;;;;;;34.83;29.90;;;8.60;99.90;;;;;;4771192;29;20072;-80
2022/05/22 04:01:10;;;;;;;32.33;26.17;;;8.60;99.90;;;;;;4785497;29;20080;-79
2022/05/22 04:03:36;;;;;;;29.33;24.23;;;8.60;99.90;;;;;;4784600;29;20074;-80
2022/05/22 04:06:04;;;;;;;49.47;44.20;;;8.50;99.90;;;;;;4802199;29;20086;-80
2022/05/22 04:08:30;;;;;;;31.47;27.30;;;8.60;99.90;;;;;;4783684;29;20047;-80
2022/05/22 04:10:56;;;;;;;18.80;16.80;;;8.60;99.90;;;;;;4785455;29;20062;-80
2022/05/22 04:13:23;;;;;;;19.47;13.13;;;8.60;99.90;;;;;;4798873;29;20059;-80
2022/05/22 04:15:49;;;;;;;13.47;11.20;;;8.70;99.90;;;;;;4770338;29;20046;-80
2022/05/22 04:18:15;;;;;;;13.90;9.03;;;8.80;99.90;;;;;;4771446;29;20069;-80
2022/05/22 04:20:41;;;;;;;12.43;8.23;;;8.80;99.90;;;;;;4785595;29;20059;-80
2022/05/22 04:25:56;;;;;;;25.93;23.10;;;8.90;99.90;;;;;;4790631;29;20051;-80
2022/05/22 04:28:27;;;;;;;19.00;14.13;;;8.90;99.90;;;;;;4800710;29;20059;-78
2022/05/22 04:30:53;;;;;;;11.30;6.70;;;8.90;99.90;;;;;;4804742;29;20087;-80
2022/05/22 04:33:19;;;;;;;11.40;5.80;;;9.00;99.90;;;;;;4785286;29;20051;-80
2022/05/22 04:35:45;;;;;;;9.40;5.87;;;9.10;99.90;;;;;;4803158;29;20123;-79
2022/05/22 04:38:11;;;;;;;13.43;5.60;;;9.10;99.90;;;;;;4786395;29;20058;-80
2022/05/22 04:40:38;;;;;;;11.53;5.47;;;9.20;99.90;;;;;;4800346;29;20073;-80
2022/05/22 04:43:04;;;;;;;8.63;5.50;;;9.20;99.90;;;;;;4788227;29;20059;-80
2022/05/22 04:45:31;;;;;;;8.70;5.73;;;9.30;99.90;;;;;;4803525;29;20046;-80
2022/05/22 04:47:57;;;;;;;9.27;5.33;;;9.20;99.90;;;;;;4787217;29;20054;-80
2022/05/22 04:50:23;;;;;;;8.27;5.30;;;9.30;99.90;;;;;;4771866;29;20141;-80
2022/05/22 04:52:49;;;;;;;8.57;6.00;;;9.30;99.90;;;;;;4787248;29;20050;-80
2022/05/22 04:55:15;;;;;;;10.10;5.70;;;9.40;99.90;;;;;;4773106;29;20099;-79
2022/05/22 04:57:41;;;;;;;10.97;6.17;;;9.40;99.90;;;;;;4772417;29;20062;-81
2022/05/22 05:00:09;;;;;;;15.50;6.60;;;9.50;99.90;;;;;;4787258;29;20511;-80
2022/05/22 05:02:35;;;;;;;11.97;6.97;;;9.50;99.90;;;;;;4785475;29;20046;-79
2022/05/22 05:05:05;;;;;;;15.47;6.90;;;9.50;99.90;;;;;;4800589;29;20456;-80
2022/05/22 05:07:32;;;;;;;16.27;7.60;;;9.50;99.90;;;;;;4784658;29;20050;-80
2022/05/22 05:09:58;;;;;;;11.00;7.17;;;9.60;99.90;;;;;;4772998;29;20118;-79
2022/05/22 05:12:24;;;;;;;12.23;6.57;;;9.60;99.90;;;;;;4799348;29;20074;-80
2022/05/22 05:14:50;;;;;;;12.87;6.87;;;9.70;99.90;;;;;;4801520;29;20079;-79
2022/05/22 05:17:18;;;;;;;11.27;6.50;;;9.70;99.90;;;;;;4785925;29;20061;-80
2022/05/22 05:19:44;;;;;;;12.53;6.70;;;9.80;99.90;;;;;;4804315;29;20334;-79
2022/05/22 05:22:10;;;;;;;10.80;6.73;;;9.80;99.90;;;;;;4783328;29;20481;-80
2022/05/22 05:24:37;;;;;;;14.40;6.97;;;9.90;99.90;;;;;;4813742;29;20461;-81
2022/05/22 05:27:03;;;;;;;13.20;7.90;;;10.00;99.90;;;;;;4782392;29;20811;-80
2022/05/22 05:29:28;;;;;;;11.80;6.67;;;10.00;99.90;;;;;;4771017;29;20059;-80
2022/05/22 05:31:54;;;;;;;12.13;7.10;;;10.10;99.90;;;;;;4789914;29;20047;-80
2022/05/22 05:34:20;;;;;;;11.33;7.30;;;10.20;99.90;;;;;;4787850;29;20086;-80
2022/05/22 05:36:46;;;;;;;11.97;6.90;;;10.30;99.90;;;;;;4774238;29;20103;-80
2022/05/22 05:39:13;;;;;;;11.43;6.93;;;10.40;99.90;;;;;;4810938;29;20046;-81
2022/05/22 05:41:38;;;;;;;10.03;6.93;;;10.50;99.90;;;;;;4789337;29;20059;-81
2022/05/22 05:44:06;;;;;;;14.50;7.87;;;10.60;99.90;;;;;;4772252;29;20065;-80
2022/05/22 05:46:33;;;;;;;15.07;7.93;;;10.80;99.90;;;;;;4787288;29;20051;-81
2022/05/22 05:48:59;;;;;;;22.13;8.83;;;10.90;99.90;;;;;;4787543;29;20510;-82
2022/05/22 05:51:25;;;;;;;16.23;7.73;;;11.10;99.90;;;;;;4782616;29;20058;-81
2022/05/22 05:53:51;;;;;;;19.37;9.03;;;11.20;99.90;;;;;;4800996;29;20089;-81
2022/05/22 05:56:17;;;;;;;21.30;9.27;;;11.40;99.90;;;;;;4785977;29;20108;-81
2022/05/22 05:58:42;;;;;;;19.27;8.97;;;11.60;99.90;;;;;;4800520;29;20201;-81
2022/05/22 06:01:16;;;;;;;19.60;8.70;;;11.80;99.90;;;;;;4786665;29;20043;-82
2022/05/22 06:03:42;;;;;;;21.87;9.73;;;12.00;99.90;;;;;;4813111;29;20057;-81
2022/05/22 06:06:09;;;;;;;24.07;9.40;;;12.10;99.90;;;;;;4817871;29;20130;-80
2022/05/22 06:08:35;;;;;;;18.77;8.70;;;12.30;99.90;;;;;;4771895;29;20046;-80
2022/05/22 06:11:01;;;;;;;17.70;8.43;;;12.40;99.90;;;;;;4771271;29;20081;-81
2022/05/22 06:13:27;;;;;;;20.73;9.20;;;12.60;99.90;;;;;;4773183;29;20050;-80
2022/05/22 06:15:52;;;;;;;19.83;8.30;;;12.70;99.90;;;;;;4771927;29;20157;-81
2022/05/22 06:18:19;;;;;;;15.07;8.53;;;12.90;99.90;;;;;;4755904;29;20062;-81
2022/05/22 06:20:45;;;;;;;20.00;9.03;;;13.00;99.90;;;;;;4769730;29;20046;-81
2022/05/22 06:23:11;;;;;;;23.37;8.47;;;13.20;99.90;;;;;;4781233;29;20057;-81
2022/05/22 06:25:39;;;;;;;21.73;8.93;;;13.40;99.90;;;;;;4782512;29;20138;-82
2022/05/22 06:28:05;;;;;;;15.30;8.27;;;13.60;99.90;;;;;;4788098;29;20050;-81
2022/05/22 06:30:31;;;;;;;18.13;8.33;;;13.70;99.90;;;;;;4754558;29;20058;-81
2022/05/22 06:32:57;;;;;;;17.80;8.80;;;13.90;99.90;;;;;;4786753;29;20121;-82
2022/05/22 06:35:23;;;;;;;15.23;8.00;;;14.10;99.90;;;;;;4800487;29;20110;-82
2022/05/22 06:37:49;;;;;;;16.70;8.57;;;14.20;99.90;;;;;;4772931;29;20749;-83
2022/05/22 06:40:15;;;;;;;24.53;8.63;;;14.30;99.90;;;;;;4772271;29;20047;-82
2022/05/22 06:42:43;;;;;;;18.77;8.83;;;14.40;99.90;;;;;;4770198;29;20049;-82
2022/05/22 06:45:14;;;;;;;17.03;8.40;;;14.50;99.90;;;;;;4801197;29;20039;-82
2022/05/22 06:47:42;;;;;;;18.27;7.10;;;14.70;99.90;;;;;;4792715;29;20051;-81
2022/05/22 06:50:13;;;;;;;24.37;8.03;;;14.70;99.90;;;;;;4797735;29;20103;-81
2022/05/22 06:52:39;;;;;;;19.30;7.83;;;14.80;99.90;;;;;;4801426;29;20487;-80
2022/05/22 06:55:06;;;;;;;17.02;7.63;;;15.00;99.90;;;;;;4799223;29;20055;-82
2022/05/22 06:57:32;;;;;;;17.27;8.13;;;15.00;99.90;;;;;;4787406;29;20106;-82
2022/05/22 06:59:59;;;;;;;18.70;8.37;;;15.20;99.90;;;;;;4793628;29;20090;-82
2022/05/22 07:02:29;;;;;;;12.43;7.13;;;15.20;99.90;;;;;;4770941;29;20111;-82
2022/05/22 07:05:01;;;;;;;18.30;8.00;;;15.20;99.90;;;;;;4801124;29;20578;-81
2022/05/22 07:07:27;;;;;;;17.98;7.15;;;15.40;99.90;;;;;;4803647;29;20050;-83
2022/05/22 07:09:54;;;;;;;14.60;7.40;;;15.50;99.90;;;;;;4788059;29;20101;-83
2022/05/22 07:12:20;;;;;;;12.25;5.70;;;15.60;99.90;;;;;;4770168;29;20051;-83
2022/05/22 07:14:48;;;;;;;14.32;6.28;;;15.70;99.90;;;;;;4800428;29;20054;-82
2022/05/22 07:17:15;;;;;;;15.75;5.85;;;15.80;99.90;;;;;;4782619;29;20150;-82
2022/05/22 07:19:44;;;;;;;15.32;6.03;;;15.90;99.90;;;;;;4782425;29;20569;-83
2022/05/22 07:22:10;;;;;;;13.13;5.65;;;16.00;99.90;;;;;;4797981;29;20049;-80
2022/05/22 07:24:36;;;;;;;13.02;4.72;;;16.10;99.90;;;;;;4794998;29;20047;-84
2022/05/22 07:27:02;;;;;;;11.05;5.10;;;16.20;99.90;;;;;;4788159;29;20054;-88
2022/05/22 07:29:29;;;;;;;14.93;4.75;;;16.20;99.90;;;;;;4768238;29;20046;-84
2022/05/22 07:31:56;;;;;;;11.65;5.05;;;16.40;99.90;;;;;;4785941;29;20070;-77
2022/05/22 07:34:24;;;;;;;15.85;5.18;;;16.40;99.90;;;;;;4770694;29;20160;-79
2022/05/22 07:36:58;;;;;;;11.75;4.95;;;16.50;99.90;;;;;;4809012;29;20065;-78
2022/05/22 07:39:24;;;;;;;10.02;5.00;;;16.60;99.90;;;;;;4782664;29;20054;-77
2022/05/22 07:41:50;;;;;;;9.45;4.75;;;16.70;99.90;;;;;;4781120;29;20050;-78
2022/05/22 07:44:16;;;;;;;11.00;4.82;;;16.80;99.90;;;;;;4772840;29;20059;-77
2022/05/22 07:46:42;;;;;;;11.70;5.25;;;16.90;99.90;;;;;;4796973;29;20054;-78
2022/05/22 07:49:08;;;;;;;9.90;5.00;;;17.00;99.90;;;;;;4795905;29;20430;-75
2022/05/22 07:51:34;;;;;;;14.65;5.55;;;17.00;99.90;;;;;;4765817;29;20059;-75
2022/05/22 07:54:00;;;;;;;11.85;5.28;;;17.10;99.90;;;;;;4790422;29;20711;-73
2022/05/22 07:56:26;;;;;;;14.48;5.13;;;17.20;99.90;;;;;;4789245;29;20067;-73
2022/05/22 07:58:51;;;;;;;13.77;5.30;;;17.30;99.90;;;;;;4793689;29;20054;-73
2022/05/22 08:01:18;;;;;;;11.93;4.70;;;17.50;99.90;;;;;;4798498;29;20056;-73
2022/05/22 08:03:45;;;;;;;11.25;4.40;;;17.60;99.90;;;;;;4807825;29;20054;-73
2022/05/22 08:06:11;;;;;;;11.75;4.60;;;17.50;99.90;;;;;;4796703;29;20189;-73
2022/05/22 08:08:37;;;;;;;12.50;4.30;;;17.60;99.90;;;;;;4821436;29;20073;-73
2022/05/22 08:11:03;;;;;;;11.48;4.28;;;17.70;99.90;;;;;;4793521;29;20055;-73
2022/05/22 08:13:29;;;;;;;9.77;4.20;;;17.80;99.90;;;;;;4809589;29;20059;-72
2022/05/22 08:15:55;;;;;;;11.60;4.40;;;17.80;99.90;;;;;;4812770;29;20046;-73
2022/05/22 08:18:21;;;;;;;10.43;4.00;;;17.60;99.90;;;;;;4790500;29;20172;-73
2022/05/22 08:20:49;;;;;;;12.65;4.63;;;17.40;99.90;;;;;;4806084;29;20054;-73
2022/05/22 08:23:20;;;;;;;10.13;3.83;;;17.40;99.90;;;;;;4796083;29;20050;-72
2022/05/22 08:25:47;;;;;;;11.98;3.88;;;17.50;99.90;;;;;;4790245;29;20058;-73
2022/05/22 08:28:14;;;;;;;10.23;3.85;;;17.70;99.90;;;;;;4793725;29;20093;-73
2022/05/22 08:30:39;;;;;;;11.48;3.70;;;17.90;99.90;;;;;;4808524;29;20112;-73
2022/05/22 08:33:06;;;;;;;12.23;3.55;;;18.10;99.90;;;;;;4788908;29;20042;-73
2022/05/22 08:35:36;;;;;;;9.35;2.90;;;18.20;99.90;;;;;;4791168;29;20043;-73
2022/05/22 08:38:02;;;;;;;6.97;2.92;;;17.90;99.90;;;;;;4804730;29;20051;-73
2022/05/22 08:40:45;;;;;;;9.27;3.30;;;17.70;99.90;;;;;;4809462;29;20547;-73
2022/05/22 08:43:51;;;;;;;7.97;3.30;;;17.40;99.90;;;;;;4803926;29;20043;-73
2022/05/22 08:46:33;;;;;;;8.27;2.72;;;17.50;99.90;;;;;;4804380;29;20066;-73
2022/05/22 08:49:01;;;;;;;6.93;2.97;;;17.70;99.90;;;;;;4813175;29;20111;-78
2022/05/22 08:51:58;;;;;;;7.95;2.75;;;18.10;99.90;;;;;;4779673;30;20119;-76
2022/05/22 08:54:38;;;;;;;5.93;2.65;;;18.30;99.90;;;;;;4791220;29;20067;-78
2022/05/22 09:00:02;;;;;;;10.98;2.72;;;18.60;99.90;;;;;;4808341;29;20082;-77
2022/05/22 09:02:35;;;;;;;11.00;2.85;;;18.60;99.90;;;;;;4786440;29;20063;-77
2022/05/22 09:05:10;;;;;;;10.32;3.60;;;18.60;99.90;;;;;;4779829;29;20404;-79
2022/05/22 09:07:55;;;;;;;7.55;2.72;;;18.30;99.90;;;;;;4784680;29;20499;-78
2022/05/22 09:10:23;;;;;;;8.82;2.78;;;18.10;99.90;;;;;;4782416;29;20050;-78
2022/05/22 09:13:01;;;;;;;9.20;2.70;;;17.80;99.90;;;;;;4782519;30;20051;-78
2022/05/22 09:15:49;;;;;;;7.53;2.95;;;17.60;99.90;;;;;;4797978;29;20083;-78
2022/05/22 09:18:15;;;;;;;7.45;2.60;;;17.50;99.90;;;;;;4768805;29;20147;-77
2022/05/22 09:20:52;;;;;;;6.18;2.63;;;17.50;99.90;;;;;;4799191;29;20484;-78
2022/05/22 09:23:39;;;;;;;9.82;2.53;;;17.60;99.90;;;;;;4804255;29;20188;-78
2022/05/22 09:26:11;;;;;;;9.07;2.63;;;17.70;99.90;;;;;;4803770;29;20051;-77
2022/05/22 09:28:56;;;;;;;5.43;2.33;;;17.90;99.90;;;;;;4804857;29;20091;-73
2022/05/22 09:31:43;;;;;;;9.68;2.53;;;18.00;99.90;;;;;;4799402;29;20110;-77
2022/05/22 09:34:24;;;;;;;7.10;2.15;;;18.00;99.90;;;;;;4783418;30;20116;-76
2022/05/22 09:36:58;;;;;;;7.25;2.55;;;17.90;99.90;;;;;;4785392;29;20097;-76
2022/05/22 09:40:01;;;;;;;8.80;2.35;;;17.70;99.90;;;;;;4782307;29;20046;-76
2022/05/22 09:42:49;;;;;;;6.85;2.55;;;17.70;99.90;;;;;;4787554;29;20063;-75
2022/05/22 09:45:39;;;;;;;7.13;2.50;;;18.00;99.90;;;;;;4803009;29;20271;-77
2022/05/22 09:48:18;;;;;;;10.77;2.30;;;18.40;99.90;;;;;;4789786;29;20085;-76
2022/05/22 09:51:08;;;;;;;5.15;2.00;;;18.80;99.90;;;;;;4773164;29;20047;-76
2022/05/22 09:54:22;;;;;;;5.45;2.15;;;19.30;99.90;;;;;;4790530;29;20116;-76
2022/05/22 09:57:05;;;;;;;5.80;2.10;;;19.30;99.90;;;;;;4783615;29;20059;-77
2022/05/22 09:59:43;;;;;;;6.75;1.98;;;19.40;99.90;;;;;;4773609;29;20065;-77
2022/05/22 10:02:22;;;;;;;5.93;2.03;;;19.40;99.90;;;;;;4804180;29;20046;-77
2022/05/22 10:05:11;;;;;;;5.13;1.77;;;19.60;99.90;;;;;;4776516;29;20082;-76
2022/05/22 10:07:43;;;;;;;4.57;1.70;;;19.70;99.90;;;;;;4788791;29;20110;-78
2022/05/22 10:10:23;;;;;;;5.90;1.80;;;20.00;99.90;;;;;;4775749;29;20062;-77
2022/05/22 10:13:01;;;;;;;4.80;1.60;;;20.10;99.90;;;;;;4774379;29;20487;-77
2022/05/22 10:15:56;;;;;;;3.45;1.40;;;20.30;99.90;;;;;;4775448;29;20046;-77
2022/05/22 10:18:25;;;;;;;6.95;1.92;;;20.50;99.90;;;;;;4726668;29;20053;-77
2022/05/22 10:21:08;;;;;;;5.82;2.13;;;20.60;99.90;;;;;;4772926;29;20089;-77
2022/05/22 10:23:42;;;;;;;4.35;1.80;;;20.60;99.90;;;;;;4775970;29;20042;-77
2022/05/22 10:26:52;;;;;;;7.35;1.83;;;20.60;99.90;;;;;;4805388;29;20115;-78
2022/05/22 10:29:25;;;;;;;6.28;2.00;;;20.30;99.90;;;;;;4788678;29;20743;-77
2022/05/22 10:31:57;;;;;;;8.25;2.40;;;19.90;99.90;;;;;;4819078;29;20059;-77
2022/05/22 10:34:28;;;;;;;5.85;2.17;;;19.60;99.90;;;;;;4774473;29;20070;-78
2022/05/22 10:37:01;;;;;;;5.63;2.08;;;19.40;99.90;;;;;;4778430;29;20109;-77
2022/05/22 10:39:26;;;;;;;5.85;2.10;;;19.30;99.90;;;;;;4779777;29;20054;-77
2022/05/22 10:45:04;;;;;;;5.97;2.00;;;18.90;99.90;;;;;;4790510;29;20046;-77
2022/05/22 10:47:32;;;;;;;6.53;2.03;;;18.70;99.90;;;;;;4774334;29;20082;-77
2022/05/22 10:50:00;;;;;;;8.98;2.28;;;18.70;99.90;;;;;;4787204;29;20127;-77
2022/05/22 10:52:31;;;;;;;4.93;2.25;;;18.70;99.90;;;;;;4788139;29;20061;-77
2022/05/22 10:54:57;;;;;;;7.95;2.70;;;19.00;99.90;;;;;;4770455;29;20173;-75
2022/05/22 10:57:31;;;;;;;9.45;2.70;;;19.20;99.90;;;;;;4775061;29;20073;-77
2022/05/22 11:00:08;;;;;;;4.75;2.05;;;19.50;99.90;;;;;;4769883;29;20050;-77
2022/05/22 11:02:34;;;;;;;7.78;2.20;;;19.70;99.90;;;;;;4786296;29;20094;-77
2022/05/22 11:05:00;;;;;;;8.02;1.92;;;20.00;99.90;;;;;;4774251;29;20139;-77
2022/05/22 11:07:34;;;;;;;10.35;2.47;;;20.20;99.90;;;;;;4769872;29;20398;-77
2022/05/22 11:10:15;;;;;;;8.50;2.60;;;20.30;99.90;;;;;;4788380;29;20058;-77
2022/05/22 11:12:41;;;;;;;6.90;2.25;;;20.40;99.90;;;;;;4785273;29;20133;-77
2022/05/22 11:15:14;;;;;;;5.00;2.38;;;20.40;99.90;;;;;;4787701;29;20050;-77
2022/05/22 11:17:40;;;;;;;6.97;2.38;;;20.60;99.90;;;;;;4771727;29;20050;-77
2022/05/22 11:20:14;;;;;;;5.85;1.77;;;20.70;99.90;;;;;;4770984;29;20073;-77
2022/05/22 11:23:18;;;;;;;5.25;1.63;;;20.70;99.90;;;;;;4787705;29;20074;-77
2022/05/22 11:26:02;;;;;;;6.93;1.85;;;21.10;99.90;;;;;;4771011;29;20065;-77
2022/05/22 11:28:47;;;;;;;4.05;1.60;;;21.30;99.90;;;;;;4771955;29;20090;-77
2022/05/22 11:31:31;;;;;;;4.57;1.52;;;21.20;99.90;;;;;;4786895;29;20088;-77
2022/05/22 11:34:03;;;;;;;7.22;1.90;;;20.90;99.90;;;;;;4771346;29;20063;-76
2022/05/22 11:36:56;;;;;;;5.25;2.25;;;20.60;99.90;;;;;;4772342;29;20159;-77
2022/05/22 11:39:36;;;;;;;7.78;1.75;;;20.40;99.90;;;;;;4783780;29;20145;-77
2022/05/22 11:42:13;;;;;;;3.50;1.58;;;20.20;99.90;;;;;;4771643;29;20043;-77
2022/05/22 11:44:45;;;;;;;3.10;1.75;;;20.10;99.90;;;;;;4773077;29;20055;-76
2022/05/22 11:47:34;;;;;;;5.05;1.65;;;19.90;99.90;;;;;;4769318;29;20161;-76
2022/05/22 11:50:26;;;;;;;4.13;1.67;;;19.90;99.90;;;;;;4785712;29;20047;-77
2022/05/22 11:53:15;;;;;;;8.60;2.10;;;19.70;99.90;;;;;;4802298;29;20066;-77
2022/05/22 11:55:49;;;;;;;6.90;1.80;;;19.60;99.90;;;;;;4770402;29;20089;-77
2022/05/22 11:58:21;;;;;;;4.38;1.75;;;19.40;99.90;;;;;;4785848;29;20489;-76
2022/05/22 12:00:50;;;;;;;3.30;1.50;;;19.80;99.90;;;;;;4787124;29;20121;-75
2022/05/22 12:03:31;;;;;;;4.05;1.73;;;20.10;99.90;;;;;;4768790;29;20050;-75
2022/05/22 12:06:07;;;;;;;4.68;1.88;;;20.50;99.90;;;;;;4772149;29;20077;-76
2022/05/22 12:08:59;;;;;;;5.93;2.03;;;20.70;99.90;;;;;;4785302;29;20055;-75
2022/05/22 12:11:31;;;;;;;4.63;1.70;;;21.00;99.90;;;;;;4769983;29;20070;-75
2022/05/22 12:14:05;;;;;;;;;;;21.20;99.90;;;;;;4759439;29;20086;-76
2022/05/22 12:16:41;;;;;;;4.80;1.70;;;21.40;99.90;;;;;;4769703;29;19990;-76
2022/05/22 12:19:48;;;;;;;5.65;1.88;;;21.70;99.90;;;;;;4770807;29;20071;-75
2022/05/22 12:23:07;;;;;;;4.22;1.80;;;21.90;99.90;;;;;;4712244;30;20447;-76
2022/05/22 12:25:20;;;;;;;7.28;1.90;;;22.20;99.90;;;;;;4783358;29;20059;-75
2022/05/22 12:27:47;;;;;;;6.00;2.30;;;22.40;99.90;;;;;;4785578;29;20043;-76
2022/05/22 12:30:28;;;;;;;9.82;2.08;;;22.20;99.90;;;;;;4785525;29;20118;-76
2022/05/22 12:33:09;;;;;;;4.45;1.85;;;22.00;97.80;;;;;;4784376;29;20047;-76
2022/05/22 12:35:37;;;;;;;6.60;2.00;;;21.70;99.30;;;;;;4783292;29;20633;-75
2022/05/22 12:38:06;;;;;;;6.10;2.15;;;21.60;99.90;;;;;;4784386;29;20061;-76
2022/05/22 12:40:53;;;;;;;6.82;1.70;;;21.60;99.90;;;;;;4774316;29;20519;-76
2022/05/22 12:43:22;;;;;;;3.15;1.40;;;21.70;99.90;;;;;;4775527;29;20046;-76
2022/05/22 12:45:56;;;;;;;3.53;1.60;;;21.80;99.20;;;;;;4788389;29;20070;-76
2022/05/22 12:48:28;;;;;;;5.03;1.80;;;21.90;98.50;;;;;;4775304;29;20086;-76
2022/05/22 12:51:31;;;;;;;7.78;2.60;;;22.20;99.90;;;;;;4772921;29;20146;-76
2022/05/22 12:54:08;;;;;;;4.18;1.63;;;22.10;94.50;;;;;;4805460;29;20173;-75
2022/05/22 12:56:33;;;;;;;5.40;1.73;;;21.90;95.10;;;;;;4789342;29;20061;-76
2022/05/22 12:59:02;;;;;;;5.53;1.70;;;21.60;97.60;;;;;;4794694;29;20050;-76
2022/05/22 13:01:30;;;;;;;7.53;1.60;;;21.50;95.10;;;;;;4789444;29;20047;-76
2022/05/22 13:04:01;;;;;;;5.55;1.55;;;21.50;96.20;;;;;;4771690;29;20078;-76
2022/05/22 13:06:48;;;;;;;3.83;1.73;;;21.30;93.80;;;;;;4787783;29;20053;-76
2022/05/22 13:09:32;;;;;;;4.28;1.77;;;21.10;99.90;;;;;;4788746;29;20055;-76
2022/05/22 13:12:19;;;;;;;5.47;1.85;;;21.00;99.90;;;;;;4786613;29;20054;-75